Shinwamaru — SHINWA — position and weather

sailwx.info

Track history (hours):
 
Tides and Currents Weather Stations Pressure Air Temp Water Temp Dewpoint Dewpoint Depression Visibility Wind Speed Wind Dir Waves Ship Positions

Shinwamaru

Last reported at 2017-Dec-13 19:14 UTC. Time now 2017-Dec-15 14:25 UTC.
Position N 35°31' E 139°49'.

Length 12 m.

Type: Tug. MMSI: 431009702.

Date/timePositionNaut miles runAvg speedWind from/ knotsBaromVisibWave heightAir tempDewpointWater temp
2017-Dec-13 19:14N 35°31' E 139°49'3 1.3
2017-Dec-13 17:14N 35°31' E 139°46'1 5.5
2017-Dec-13 17:00N 35°30' E 139°45'4 7.3
2017-Dec-13 16:30N 35°28' E 139°41'2 0.3
2017-Dec-13 08:25N 35°27' E 139°40'3 6.0
2017-Dec-13 08:00N 35°29' E 139°42'18 8.7
2017-Dec-13 05:55N 35°34' E 140°03'2 2.0
2017-Dec-13 05:02N 35°33' E 140°05'0 5.7
2017-Dec-13 05:00N 35°33' E 140°05'3 5.5
2017-Dec-13 04:28N 35°35' E 140°02'13 4.5
2017-Dec-13 01:30N 35°30' E 139°47'4 8.8
2017-Dec-13 01:00N 35°27' E 139°43'2 0.1
2017-Dec-12 05:22N 35°27' E 139°40'2 5.7
2017-Dec-12 05:00N 35°28' E 139°41'5 3.3
2017-Dec-12 03:33N 35°31' E 139°46'1 6.3
2017-Dec-12 03:25N 35°30' E 139°46'3 7.3
2017-Dec-12 03:00N 35°29' E 139°43'1 2.0
2017-Dec-12 02:28N 35°29' E 139°41'0 0.0
2017-Dec-12 01:55N 35°29' E 139°41'0 0.1
2017-Dec-12 01:30N 35°29' E 139°41'3 5.1
2017-Dec-12 01:00N 35°26' E 139°42'3 5.7
2017-Dec-12 00:30N 35°24' E 139°40'1 2.7
2017-Dec-12 00:00N 35°24' E 139°38'0 0.1
2017-Dec-11 23:30N 35°24' E 139°38'0 0.1
2017-Dec-11 22:57N 35°24' E 139°38'2 4.1
2017-Dec-11 22:30N 35°24' E 139°40'3 6.9
2017-Dec-11 22:00N 35°27' E 139°42'3 5.4
2017-Dec-11 21:30N 35°30' E 139°43'2 1.6
2017-Dec-11 20:04N 35°31' E 139°46'1 7.8
2017-Dec-11 19:56N 35°30' E 139°45'3 7.6
2017-Dec-11 19:30N 35°28' E 139°41'2 0.1
2017-Dec-11 03:49N 35°27' E 139°40'2 6.3
2017-Dec-11 03:30N 35°28' E 139°41'4 2.6
2017-Dec-11 01:55N 35°30' E 139°45'2 4.0
2017-Dec-11 01:30N 35°30' E 139°44'2 3.9
2017-Dec-11 01:00N 35°29' E 139°42'1 2.4
2017-Dec-11 00:29N 35°28' E 139°40'0 0.0
2017-Dec-10 23:59N 35°28' E 139°40'2 3.1
2017-Dec-10 23:30N 35°29' E 139°42'1 1.3
2017-Dec-10 22:58N 35°29' E 139°43'2 3.6
2017-Dec-10 22:30N 35°30' E 139°44'1 0.2
2017-Dec-10 20:18N 35°30' E 139°45'2 8.0
2017-Dec-10 20:00N 35°29' E 139°42'3 6.3
2017-Dec-10 19:30N 35°27' E 139°40'0 0.0
2017-Dec-10 07:48N 35°27' E 139°40'2 5.9
2017-Dec-10 07:30N 35°28' E 139°41'4 7.6
2017-Dec-10 07:00N 35°30' E 139°45'1 1.5
2017-Dec-10 06:04N 35°31' E 139°46'0 3.9
2017-Dec-10 05:59N 35°31' E 139°46'2 3.0
2017-Dec-10 05:25N 35°30' E 139°44'0 0.0
2017-Dec-10 04:58N 35°30' E 139°44'0 0.0
2017-Dec-10 02:18N 35°30' E 139°44'0 0.1
2017-Dec-10 01:59N 35°30' E 139°44'0 0.0
2017-Dec-10 01:29N 35°30' E 139°44'0 0.0
2017-Dec-09 23:53N 35°30' E 139°44'0 0.0
2017-Dec-09 23:30N 35°30' E 139°44'2 1.2
2017-Dec-09 22:10N 35°31' E 139°46'1 8.2
2017-Dec-09 22:00N 35°30' E 139°44'4 8.2
2017-Dec-09 21:30N 35°28' E 139°40'1 0.0
2017-Dec-08 06:15N 35°27' E 139°40'1 5.9
2017-Dec-08 06:00N 35°28' E 139°40'1 2.6
2017-Dec-08 05:30N 35°29' E 139°42'4 3.5
2017-Dec-08 04:17N 35°31' E 139°46'2 5.7
2017-Dec-08 03:59N 35°30' E 139°47'6 6.6
2017-Dec-08 03:08N 35°29' E 139°54'1 6.7
2017-Dec-08 02:59N 35°29' E 139°55'8 1.6
2017-Dec-07 21:56N 35°30' E 139°45'4 8.5
2017-Dec-07 21:30N 35°29' E 139°41'2 0.2
2017-Dec-07 08:27N 35°27' E 139°40'3 6.7
2017-Dec-07 08:00N 35°27' E 139°43'8 8.3
2017-Dec-07 07:04N 35°30' E 139°52'1 8.5
2017-Dec-07 06:55N 35°29' E 139°54'3 8.3
2017-Dec-07 06:30N 35°28' E 139°58'1 1.7
2017-Dec-07 06:00N 35°27' E 139°57'2 2.4
2017-Dec-07 05:19N 35°28' E 139°56'1 4.3
2017-Dec-07 05:00N 35°28' E 139°54'1 0.2
2017-Dec-06 23:10N 35°27' E 139°53'0 0.3
2017-Dec-06 22:58N 35°27' E 139°53'1 2.1
2017-Dec-06 22:30N 35°28' E 139°54'3 4.1
2017-Dec-06 21:53N 35°28' E 139°57'1 2.9
2017-Dec-06 21:30N 35°27' E 139°57'  
2017-Dec-04 02:23N 35°33' E 140°05'7 7.3
2017-Dec-04 01:21N 35°28' E 139°58'10 2.4
2017-Dec-03 21:07N 35°30' E 139°46'1 7.9
2017-Dec-03 21:00N 35°30' E 139°45'4 8.2
2017-Dec-03 20:30N 35°28' E 139°40'  
Track history (hours):
 
Tides and Currents Weather Stations Pressure Air Temp Water Temp Dewpoint Dewpoint Depression Visibility Wind Speed Wind Dir Waves Ship Positions

Shinwamaru

Last reported at 2017-Dec-13 19:14 UTC. Time now 2017-Dec-15 14:25 UTC.
Position N 35°31' E 139°49'.

Length 12 m.

Type: Tug. MMSI: 431009702.

Date/timePositionNaut miles runAvg speedWind from/ knotsBaromVisibWave heightAir tempDewpointWater temp
2017-Dec-13 19:14N 35°31' E 139°49'3 1.3
2017-Dec-13 17:14N 35°31' E 139°46'1 5.5
2017-Dec-13 17:00N 35°30' E 139°45'4 7.3
2017-Dec-13 16:30N 35°28' E 139°41'2 0.3
2017-Dec-13 08:25N 35°27' E 139°40'3 6.0
2017-Dec-13 08:00N 35°29' E 139°42'18 8.7
2017-Dec-13 05:55N 35°34' E 140°03'2 2.0
2017-Dec-13 05:02N 35°33' E 140°05'0 5.7
2017-Dec-13 05:00N 35°33' E 140°05'3 5.5
2017-Dec-13 04:28N 35°35' E 140°02'13 4.5
2017-Dec-13 01:30N 35°30' E 139°47'4 8.8
2017-Dec-13 01:00N 35°27' E 139°43'2 0.1
2017-Dec-12 05:22N 35°27' E 139°40'2 5.7
2017-Dec-12 05:00N 35°28' E 139°41'5 3.3
2017-Dec-12 03:33N 35°31' E 139°46'1 6.3
2017-Dec-12 03:25N 35°30' E 139°46'3 7.3
2017-Dec-12 03:00N 35°29' E 139°43'1 2.0
2017-Dec-12 02:28N 35°29' E 139°41'0 0.0
2017-Dec-12 01:55N 35°29' E 139°41'0 0.1
2017-Dec-12 01:30N 35°29' E 139°41'3 5.1
2017-Dec-12 01:00N 35°26' E 139°42'3 5.7
2017-Dec-12 00:30N 35°24' E 139°40'1 2.7
2017-Dec-12 00:00N 35°24' E 139°38'0 0.1
2017-Dec-11 23:30N 35°24' E 139°38'0 0.1
2017-Dec-11 22:57N 35°24' E 139°38'2 4.1
2017-Dec-11 22:30N 35°24' E 139°40'3 6.9
2017-Dec-11 22:00N 35°27' E 139°42'3 5.4
2017-Dec-11 21:30N 35°30' E 139°43'2 1.6
2017-Dec-11 20:04N 35°31' E 139°46'1 7.8
2017-Dec-11 19:56N 35°30' E 139°45'3 7.6
2017-Dec-11 19:30N 35°28' E 139°41'2 0.1
2017-Dec-11 03:49N 35°27' E 139°40'2 6.3
2017-Dec-11 03:30N 35°28' E 139°41'4 2.6
2017-Dec-11 01:55N 35°30' E 139°45'2 4.0
2017-Dec-11 01:30N 35°30' E 139°44'2 3.9
2017-Dec-11 01:00N 35°29' E 139°42'1 2.4
2017-Dec-11 00:29N 35°28' E 139°40'0 0.0
2017-Dec-10 23:59N 35°28' E 139°40'2 3.1
2017-Dec-10 23:30N 35°29' E 139°42'1 1.3
2017-Dec-10 22:58N 35°29' E 139°43'2 3.6
2017-Dec-10 22:30N 35°30' E 139°44'1 0.2
2017-Dec-10 20:18N 35°30' E 139°45'2 8.0
2017-Dec-10 20:00N 35°29' E 139°42'3 6.3
2017-Dec-10 19:30N 35°27' E 139°40'0 0.0
2017-Dec-10 07:48N 35°27' E 139°40'2 5.9
2017-Dec-10 07:30N 35°28' E 139°41'4 7.6
2017-Dec-10 07:00N 35°30' E 139°45'1 1.5
2017-Dec-10 06:04N 35°31' E 139°46'0 3.9
2017-Dec-10 05:59N 35°31' E 139°46'2 3.0
2017-Dec-10 05:25N 35°30' E 139°44'0 0.0
2017-Dec-10 04:58N 35°30' E 139°44'0 0.0
2017-Dec-10 02:18N 35°30' E 139°44'0 0.1
2017-Dec-10 01:59N 35°30' E 139°44'0 0.0
2017-Dec-10 01:29N 35°30' E 139°44'0 0.0
2017-Dec-09 23:53N 35°30' E 139°44'0 0.0
2017-Dec-09 23:30N 35°30' E 139°44'2 1.2
2017-Dec-09 22:10N 35°31' E 139°46'1 8.2
2017-Dec-09 22:00N 35°30' E 139°44'4 8.2
2017-Dec-09 21:30N 35°28' E 139°40'1 0.0
2017-Dec-08 06:15N 35°27' E 139°40'1 5.9
2017-Dec-08 06:00N 35°28' E 139°40'1 2.6
2017-Dec-08 05:30N 35°29' E 139°42'4 3.5
2017-Dec-08 04:17N 35°31' E 139°46'2 5.7
2017-Dec-08 03:59N 35°30' E 139°47'6 6.6
2017-Dec-08 03:08N 35°29' E 139°54'1 6.7
2017-Dec-08 02:59N 35°29' E 139°55'8 1.6
2017-Dec-07 21:56N 35°30' E 139°45'4 8.5
2017-Dec-07 21:30N 35°29' E 139°41'2 0.2
2017-Dec-07 08:27N 35°27' E 139°40'3 6.7
2017-Dec-07 08:00N 35°27' E 139°43'8 8.3
2017-Dec-07 07:04N 35°30' E 139°52'1 8.5
2017-Dec-07 06:55N 35°29' E 139°54'3 8.3
2017-Dec-07 06:30N 35°28' E 139°58'1 1.7
2017-Dec-07 06:00N 35°27' E 139°57'2 2.4
2017-Dec-07 05:19N 35°28' E 139°56'1 4.3
2017-Dec-07 05:00N 35°28' E 139°54'1 0.2
2017-Dec-06 23:10N 35°27' E 139°53'0 0.3
2017-Dec-06 22:58N 35°27' E 139°53'1 2.1
2017-Dec-06 22:30N 35°28' E 139°54'3 4.1
2017-Dec-06 21:53N 35°28' E 139°57'1 2.9
2017-Dec-06 21:30N 35°27' E 139°57'  
2017-Dec-04 02:23N 35°33' E 140°05'7 7.3
2017-Dec-04 01:21N 35°28' E 139°58'10 2.4
2017-Dec-03 21:07N 35°30' E 139°46'1 7.9
2017-Dec-03 21:00N 35°30' E 139°45'4 8.2
2017-Dec-03 20:30N 35°28' E 139°40'  

Dump ship's entire track history